Garden City Regional Airport
KGCK : rendu visible

Aérodrome :











RETROUVEZ-NOUS SUR...

 
LOGIN :

S'inscrire | Disclaimer

   EN    FR    IT 

 









Légende :    VFR   VFR Marginal   IFR   IFR Intensif   IFR Très Intensif
Visi : 
Plafond : 
>= 8 km
>= 3000ft
5 à 8 km
1000 à 3000 ft
1500m à 5 km
500 à 1000 ft
800 à 1500m
200 à 500 ft
< 800m
< 200 ft
Symboles :   Orages  Brouillard  Fortes neiges  Fortes précipitations  Vent > 20 kt






- Altitude de l'aérodrome : 2891 ft
- Code IATA : GCK


KGCK - Garden City Regional

DERNIER METAR :
  • 260754Z AUTO 31009KT 10SM CLR M01/M03 A3001 RMK AO2 SLP172 T10061033

METARs EXPIRÉS :
  • 260654Z AUTO 31007KT 10SM CLR 00/M02 A3001 RMK AO2 SLP172 T00001022
  • 260554Z AUTO 29008KT 10SM CLR M01/M03 A3001 RMK AO2 SLP177 T10111028 10078 21011 401061028 53006

TAF KGCK
Valide du 26 à 06h jusqu'au 27 à 06h UTC


260520Z 2606/2706 32007KT P6SM SKC
FM261500 30007KT P6SM SKC
FM270000 VRB05KT P6SM SKC



MET'MAP, la Météo Aéronautique d'un coup d'oeil ! - Copyright ORBIFLY Décembre 2007 - Disclaimer

ORBIFLY MET'MAP TEAM :

Programmation & Développement : Alexandra Zaïnal
Sur une idée originale de : Baudouin d'Aumeries
Assistance à la programmation : Marc-Olivier Méhu
Soutien technique & logistique : Manuel Goepfert

Contact : metmap@orbifly.com




SOURCES & CREDITS :

   NOAA       Earth
Advisory